Time;durP1;ratioP1;P1;durP2;ratioP2;P2;SDS_P1;SDS_P2;PMS_P1;PMS_P2;Temp;Humidity;BMP_temperature;BMP_pressure;BME280_temperature;BME280_humidity;BME280_pressure;Samples;Min_cycle;Max_cycle;Signal;HPM_P1;HPM_P2
2022/07/08 00:00:04;;;;;;;22.23;20.30;;;;;;;;;;5072885;28;20407;-69
2022/07/08 00:02:31;;;;;;;20.50;19.13;;;;;;;;;;5072787;28;20421;-69
2022/07/08 00:05:00;;;;;;;22.17;20.43;;;;;;;;;;5072495;28;20895;-68
2022/07/08 00:07:27;;;;;;;23.20;20.90;;;;;;;;;;5072821;28;20775;-69
2022/07/08 00:09:55;;;;;;;23.10;21.23;;;;;;;;;;5072756;28;20416;-68
2022/07/08 00:12:22;;;;;;;22.23;20.33;;;;;;;;;;5072313;28;20442;-69
2022/07/08 00:14:49;;;;;;;21.73;20.10;;;;;;;;;;5072386;28;20821;-69
2022/07/08 00:17:16;;;;;;;21.50;19.60;;;;;;;;;;5072578;28;20750;-69
2022/07/08 00:19:44;;;;;;;20.47;19.17;;;;;;;;;;5072407;28;20482;-68
2022/07/08 00:22:12;;;;;;;21.10;19.60;;;;;;;;;;5072376;28;20980;-68
2022/07/08 00:24:40;;;;;;;22.60;20.90;;;;;;;;;;5072424;28;20466;-69
2022/07/08 00:27:07;;;;;;;23.50;21.43;;;;;;;;;;5072235;28;20405;-68
2022/07/08 00:29:34;;;;;;;23.13;21.30;;;;;;;;;;5072149;28;20774;-68
2022/07/08 00:32:02;;;;;;;21.50;20.00;;;;;;;;;;5072558;28;20414;-69
2022/07/08 00:34:29;;;;;;;23.70;21.43;;;;;;;;;;5072421;28;20541;-68
2022/07/08 00:36:56;;;;;;;22.90;21.50;;;;;;;;;;5072539;28;20422;-69
2022/07/08 00:39:25;;;;;;;22.33;20.57;;;;;;;;;;5072178;28;20447;-69
2022/07/08 00:41:52;;;;;;;22.07;19.90;;;;;;;;;;5072362;28;20417;-69
2022/07/08 00:44:19;;;;;;;21.43;19.63;;;;;;;;;;5072409;28;20418;-69
2022/07/08 00:46:47;;;;;;;22.47;20.67;;;;;;;;;;5072067;28;20468;-69
2022/07/08 00:49:14;;;;;;;21.97;20.33;;;;;;;;;;5072315;28;20427;-69
2022/07/08 00:51:42;;;;;;;22.57;20.53;;;;;;;;;;5072369;28;20443;-68
2022/07/08 00:54:10;;;;;;;24.90;20.90;;;;;;;;;;5072214;28;20479;-69
2022/07/08 00:56:40;;;;;;;22.63;20.83;;;;;;;;;;5072054;28;20408;-69
2022/07/08 00:59:07;;;;;;;22.20;20.60;;;;;;;;;;5072269;28;20426;-69
2022/07/08 01:01:34;;;;;;;22.13;20.43;;;;;;;;;;5071999;28;20410;-69
2022/07/08 01:04:02;;;;;;;22.37;20.47;;;;;;;;;;5072188;28;20435;-69
2022/07/08 01:06:29;;;;;;;22.20;20.57;;;;;;;;;;5075275;28;20467;-68
2022/07/08 01:08:57;;;;;;;22.27;20.50;;;;;;;;;;5075529;28;20775;-69
2022/07/08 01:11:24;;;;;;;21.60;19.90;;;;;;;;;;5075594;28;20398;-69
2022/07/08 01:13:53;;;;;;;22.63;20.50;;;;;;;;;;5075452;28;20480;-69
2022/07/08 01:16:21;;;;;;;22.90;21.30;;;;;;;;;;5075706;28;20437;-69
2022/07/08 01:18:48;;;;;;;22.00;20.30;;;;;;;;;;5075475;28;20500;-69
2022/07/08 01:21:17;;;;;;;22.30;20.10;;;;;;;;;;5075357;28;20799;-69
2022/07/08 01:23:44;;;;;;;21.60;19.97;;;;;;;;;;5075320;28;20446;-69
2022/07/08 01:26:13;;;;;;;21.13;19.40;;;;;;;;;;5075246;28;20939;-69
2022/07/08 01:28:41;;;;;;;21.27;19.73;;;;;;;;;;5075224;28;20409;-69
2022/07/08 01:31:08;;;;;;;21.67;20.13;;;;;;;;;;5075206;28;20916;-69
2022/07/08 01:33:36;;;;;;;21.73;19.60;;;;;;;;;;5075237;28;20492;-69
2022/07/08 01:36:03;;;;;;;21.27;19.67;;;;;;;;;;5075395;28;20482;-69
2022/07/08 01:38:32;;;;;;;21.43;19.93;;;;;;;;;;5075315;28;20431;-69
2022/07/08 01:40:59;;;;;;;21.37;19.97;;;;;;;;;;5075391;28;20410;-69
2022/07/08 01:43:26;;;;;;;22.73;20.67;;;;;;;;;;5075225;28;20457;-68
2022/07/08 01:45:54;;;;;;;21.93;20.33;;;;;;;;;;5074910;28;20440;-69
2022/07/08 01:48:21;;;;;;;20.77;19.40;;;;;;;;;;5075050;28;20410;-69
2022/07/08 01:50:49;;;;;;;21.13;19.60;;;;;;;;;;5074789;28;20902;-69
2022/07/08 01:53:16;;;;;;;21.87;20.00;;;;;;;;;;5075016;28;20460;-69
2022/07/08 01:55:45;;;;;;;23.67;20.10;;;;;;;;;;5075038;28;20410;-69
2022/07/08 01:58:13;;;;;;;21.73;19.93;;;;;;;;;;5074717;28;20430;-69
2022/07/08 02:00:40;;;;;;;20.50;18.97;;;;;;;;;;5074635;28;20770;-69
2022/07/08 02:03:07;;;;;;;21.30;19.60;;;;;;;;;;5074507;28;20517;-69
2022/07/08 02:05:37;;;;;;;20.97;19.57;;;;;;;;;;5074590;28;20912;-69
2022/07/08 02:08:04;;;;;;;21.53;19.40;;;;;;;;;;5074789;28;20782;-69
2022/07/08 02:12:18;;;;;;;21.17;19.40;;;;;;;;;;5074751;28;20485;-68
2022/07/08 02:13:20;;;;;;;21.33;19.90;;;;;;;;;;5074194;28;20899;-68
2022/07/08 02:15:47;;;;;;;20.57;18.83;;;;;;;;;;5073947;28;20909;-69
2022/07/08 02:18:14;;;;;;;21.30;19.70;;;;;;;;;;5073754;28;20424;-69
2022/07/08 02:20:42;;;;;;;21.30;20.00;;;;;;;;;;5074091;28;20459;-69
2022/07/08 02:23:09;;;;;;;21.90;20.03;;;;;;;;;;5074210;28;20416;-69
2022/07/08 02:25:36;;;;;;;21.13;19.27;;;;;;;;;;5073941;28;20878;-69
2022/07/08 02:28:03;;;;;;;21.87;20.23;;;;;;;;;;5074210;28;20467;-69
2022/07/08 02:30:32;;;;;;;20.50;18.90;;;;;;;;;;5073951;28;20412;-70
2022/07/08 02:32:59;;;;;;;21.30;19.53;;;;;;;;;;5074321;28;20416;-69
2022/07/08 02:35:27;;;;;;;22.30;20.30;;;;;;;;;;5074126;28;20481;-69
2022/07/08 02:37:54;;;;;;;22.33;20.00;;;;;;;;;;5074195;28;20446;-69
2022/07/08 02:40:21;;;;;;;20.87;19.20;;;;;;;;;;5074188;28;20533;-69
2022/07/08 02:42:49;;;;;;;21.53;19.90;;;;;;;;;;5073675;28;20925;-69
2022/07/08 02:45:16;;;;;;;21.33;19.57;;;;;;;;;;5073818;28;20920;-69
2022/07/08 02:47:45;;;;;;;21.43;20.03;;;;;;;;;;5073781;28;20421;-68
2022/07/08 02:50:12;;;;;;;20.37;19.17;;;;;;;;;;5073930;28;20402;-69
2022/07/08 02:52:39;;;;;;;20.67;19.40;;;;;;;;;;5073560;28;20413;-69
2022/07/08 02:55:07;;;;;;;22.50;19.97;;;;;;;;;;5073478;28;20846;-69
2022/07/08 02:57:34;;;;;;;21.00;19.40;;;;;;;;;;5073830;28;20826;-69
2022/07/08 03:00:02;;;;;;;21.30;19.70;;;;;;;;;;5073420;28;20410;-69
2022/07/08 03:02:29;;;;;;;22.10;20.30;;;;;;;;;;5073323;28;20893;-68
2022/07/08 03:04:58;;;;;;;21.33;19.60;;;;;;;;;;5073649;28;20770;-69
2022/07/08 03:07:25;;;;;;;22.37;20.27;;;;;;;;;;5073341;28;20740;-69
2022/07/08 03:09:53;;;;;;;21.23;19.53;;;;;;;;;;5073295;28;20496;-69
2022/07/08 03:12:20;;;;;;;21.97;20.27;;;;;;;;;;5073215;28;20874;-68
2022/07/08 03:14:47;;;;;;;21.00;19.50;;;;;;;;;;5073157;28;20976;-68
2022/07/08 03:17:15;;;;;;;22.40;20.50;;;;;;;;;;5073406;28;20529;-69
2022/07/08 03:19:42;;;;;;;22.30;20.67;;;;;;;;;;5073235;28;20485;-69
2022/07/08 03:22:10;;;;;;;21.43;19.90;;;;;;;;;;5073425;28;20738;-68
2022/07/08 03:24:38;;;;;;;22.00;20.17;;;;;;;;;;5072899;28;20987;-69
2022/07/08 03:27:05;;;;;;;20.80;19.20;;;;;;;;;;5072970;28;20834;-69
2022/07/08 03:29:33;;;;;;;21.63;19.83;;;;;;;;;;5073052;28;20417;-69
2022/07/08 03:32:00;;;;;;;21.10;19.80;;;;;;;;;;5073238;28;20425;-69
2022/07/08 03:34:27;;;;;;;21.37;19.63;;;;;;;;;;5072682;28;20446;-68
2022/07/08 03:36:55;;;;;;;21.60;19.70;;;;;;;;;;5072881;28;20962;-69
2022/07/08 03:39:23;;;;;;;21.90;20.10;;;;;;;;;;5073114;28;20417;-69
2022/07/08 03:41:50;;;;;;;21.37;19.97;;;;;;;;;;5073000;28;20449;-69
2022/07/08 03:44:17;;;;;;;20.90;19.40;;;;;;;;;;5072957;28;20767;-69
2022/07/08 03:46:45;;;;;;;22.27;20.43;;;;;;;;;;5073027;28;20409;-69
2022/07/08 03:49:12;;;;;;;22.47;20.50;;;;;;;;;;5072603;28;20414;-69
2022/07/08 03:51:39;;;;;;;21.00;19.60;;;;;;;;;;5072694;28;20531;-68
2022/07/08 03:54:07;;;;;;;21.57;19.80;;;;;;;;;;5072612;28;20483;-69
2022/07/08 03:56:35;;;;;;;21.73;19.83;;;;;;;;;;5072689;28;20436;-69
2022/07/08 03:59:03;;;;;;;20.50;19.00;;;;;;;;;;5072863;28;20866;-69
2022/07/08 04:01:30;;;;;;;21.63;20.13;;;;;;;;;;5072836;28;20411;-69
2022/07/08 04:03:57;;;;;;;24.67;19.43;;;;;;;;;;5072778;28;20422;-69
2022/07/08 04:06:25;;;;;;;21.60;20.00;;;;;;;;;;5072825;28;20459;-69
2022/07/08 04:08:52;;;;;;;20.97;19.47;;;;;;;;;;5072781;28;20416;-69
2022/07/08 04:11:19;;;;;;;20.87;19.30;;;;;;;;;;5072489;28;20406;-69
2022/07/08 04:13:48;;;;;;;20.53;19.33;;;;;;;;;;5072676;28;20427;-69
2022/07/08 04:16:15;;;;;;;21.10;19.77;;;;;;;;;;5072381;28;20955;-69
2022/07/08 04:18:43;;;;;;;21.97;20.27;;;;;;;;;;5072592;28;20450;-69
2022/07/08 04:21:10;;;;;;;20.70;19.30;;;;;;;;;;5072194;28;20464;-69
2022/07/08 04:23:40;;;;;;;21.83;19.93;;;;;;;;;;5072622;28;20412;-69
2022/07/08 04:26:07;;;;;;;22.57;20.33;;;;;;;;;;5072662;28;20517;-69
2022/07/08 04:28:35;;;;;;;22.10;19.70;;;;;;;;;;5072305;28;20471;-69
2022/07/08 04:31:03;;;;;;;21.90;20.17;;;;;;;;;;5072594;28;20444;-69
2022/07/08 04:33:31;;;;;;;20.70;19.40;;;;;;;;;;5072169;28;20439;-69
2022/07/08 04:35:58;;;;;;;20.90;19.50;;;;;;;;;;5072149;28;20873;-68
2022/07/08 04:38:25;;;;;;;21.70;20.10;;;;;;;;;;5072528;28;20412;-72
2022/07/08 04:40:53;;;;;;;20.97;19.37;;;;;;;;;;5074974;28;20438;-69
2022/07/08 04:43:20;;;;;;;20.70;19.00;;;;;;;;;;5076411;28;20409;-69
2022/07/08 04:45:47;;;;;;;20.80;19.30;;;;;;;;;;5078311;28;20435;-67
2022/07/08 04:48:16;;;;;;;22.10;20.50;;;;;;;;;;5083281;28;20450;-68
2022/07/08 04:50:43;;;;;;;20.53;19.20;;;;;;;;;;5076054;28;20401;-69
2022/07/08 04:53:11;;;;;;;21.53;19.90;;;;;;;;;;5076176;28;20441;-68
2022/07/08 04:55:38;;;;;;;23.70;22.20;;;;;;;;;;5075713;28;20487;-68
2022/07/08 04:58:06;;;;;;;23.87;21.57;;;;;;;;;;5075834;28;20447;-69
2022/07/08 05:00:34;;;;;;;23.03;21.23;;;;;;;;;;5076060;28;20470;-69
2022/07/08 05:03:02;;;;;;;23.90;22.00;;;;;;;;;;5075782;28;20437;-69
2022/07/08 05:05:31;;;;;;;23.57;21.20;;;;;;;;;;5075682;28;20422;-68
2022/07/08 05:07:59;;;;;;;23.23;21.73;;;;;;;;;;5075460;28;20412;-67
2022/07/08 05:10:26;;;;;;;22.20;20.10;;;;;;;;;;5075923;28;20417;-66
2022/07/08 05:12:53;;;;;;;22.03;20.73;;;;;;;;;;5075806;28;20434;-67
2022/07/08 05:15:21;;;;;;;23.83;21.93;;;;;;;;;;5075574;28;20476;-66
2022/07/08 05:17:48;;;;;;;23.60;21.50;;;;;;;;;;5075618;28;20404;-67
2022/07/08 05:20:16;;;;;;;22.47;20.37;;;;;;;;;;5075230;28;20446;-68
2022/07/08 05:22:44;;;;;;;21.30;19.90;;;;;;;;;;5075569;28;20426;-69
2022/07/08 05:25:12;;;;;;;21.20;19.90;;;;;;;;;;5075490;28;20470;-68
2022/07/08 05:27:40;;;;;;;22.30;20.50;;;;;;;;;;5075574;28;20472;-68
2022/07/08 05:30:08;;;;;;;22.10;20.33;;;;;;;;;;5075188;28;20775;-67
2022/07/08 05:32:35;;;;;;;22.00;20.40;;;;;;;;;;5075356;28;20432;-68
2022/07/08 05:35:04;;;;;;;22.40;21.00;;;;;;;;;;5075080;28;20487;-67
2022/07/08 05:37:32;;;;;;;21.70;20.10;;;;;;;;;;5075324;28;20508;-68
2022/07/08 05:40:01;;;;;;;22.20;20.27;;;;;;;;;;5075342;28;20413;-69
2022/07/08 05:42:28;;;;;;;21.50;20.10;;;;;;;;;;5075326;28;20409;-67
2022/07/08 05:44:55;;;;;;;23.07;20.87;;;;;;;;;;5075371;28;20468;-68
2022/07/08 05:47:22;;;;;;;22.03;20.43;;;;;;;;;;5074971;28;20410;-67
2022/07/08 05:49:50;;;;;;;22.43;20.57;;;;;;;;;;5074893;28;20438;-68
2022/07/08 05:52:18;;;;;;;21.60;19.90;;;;;;;;;;5074732;28;20921;-68
2022/07/08 05:54:46;;;;;;;21.77;20.27;;;;;;;;;;5074614;28;20456;-67
2022/07/08 05:57:15;;;;;;;22.30;20.33;;;;;;;;;;5075077;28;20493;-68
2022/07/08 05:59:42;;;;;;;22.93;20.80;;;;;;;;;;5075041;28;20428;-68
2022/07/08 06:02:10;;;;;;;22.93;20.77;;;;;;;;;;5074863;28;20455;-68
2022/07/08 06:04:37;;;;;;;22.80;20.77;;;;;;;;;;5074912;28;20447;-66
2022/07/08 06:07:05;;;;;;;21.60;20.20;;;;;;;;;;5074766;28;20409;-68
2022/07/08 06:09:32;;;;;;;21.87;20.57;;;;;;;;;;5074840;28;20410;-67
2022/07/08 06:11:59;;;;;;;23.50;21.67;;;;;;;;;;5074736;28;20436;-67
2022/07/08 06:14:28;;;;;;;22.17;20.57;;;;;;;;;;5074465;28;20410;-69
2022/07/08 06:16:55;;;;;;;22.70;21.40;;;;;;;;;;5073697;28;21010;-68
2022/07/08 06:19:23;;;;;;;23.80;21.90;;;;;;;;;;5073981;28;20863;-69
2022/07/08 06:21:51;;;;;;;23.70;21.60;;;;;;;;;;5074161;28;21289;-68
2022/07/08 06:24:18;;;;;;;21.83;20.23;;;;;;;;;;5074482;28;20541;-68
2022/07/08 06:26:46;;;;;;;22.27;20.43;;;;;;;;;;5074222;28;21256;-68
2022/07/08 06:29:14;;;;;;;21.83;20.30;;;;;;;;;;5074449;28;20415;-68
2022/07/08 06:31:42;;;;;;;22.10;20.37;;;;;;;;;;5074103;28;20437;-67
2022/07/08 06:34:10;;;;;;;26.50;21.53;;;;;;;;;;5074286;28;20430;-71
2022/07/08 06:36:41;;;;;;;22.33;20.20;;;;;;;;;;5073822;28;20485;-67
2022/07/08 06:39:09;;;;;;;21.63;20.13;;;;;;;;;;5074043;28;20893;-68
2022/07/08 06:41:36;;;;;;;21.40;20.00;;;;;;;;;;5074136;28;20520;-69
2022/07/08 06:44:03;;;;;;;21.77;20.07;;;;;;;;;;5074152;28;20473;-68
2022/07/08 06:46:31;;;;;;;21.17;19.87;;;;;;;;;;5074080;28;20439;-67
2022/07/08 06:48:59;;;;;;;22.30;20.90;;;;;;;;;;5073954;28;20430;-69
2022/07/08 06:51:26;;;;;;;22.23;20.37;;;;;;;;;;5073697;28;20447;-68
2022/07/08 06:56:38;;;;;;;23.03;20.73;;;;;;;;;;5073619;28;20531;-68
2022/07/08 06:59:06;;;;;;;22.77;21.17;;;;;;;;;;5073854;28;20405;-68
2022/07/08 07:01:33;;;;;;;21.50;20.10;;;;;;;;;;5073819;28;20529;-69
2022/07/08 07:04:03;;;;;;;22.47;20.43;;;;;;;;;;5073235;28;20464;-68
2022/07/08 07:06:30;;;;;;;21.20;19.70;;;;;;;;;;5073381;28;20470;-69
2022/07/08 07:08:58;;;;;;;22.17;20.47;;;;;;;;;;5073088;28;20414;-69
2022/07/08 07:11:25;;;;;;;23.03;21.27;;;;;;;;;;5073608;28;20490;-68
2022/07/08 07:13:52;;;;;;;23.20;20.83;;;;;;;;;;5073502;28;20436;-68
2022/07/08 07:16:19;;;;;;;22.47;20.77;;;;;;;;;;5073379;28;20482;-68
2022/07/08 07:18:47;;;;;;;20.70;19.33;;;;;;;;;;5073299;28;20426;-70
2022/07/08 07:21:15;;;;;;;23.00;21.10;;;;;;;;;;5072808;28;20817;-69
2022/07/08 07:23:43;;;;;;;21.70;20.10;;;;;;;;;;5073246;28;20489;-68
2022/07/08 07:26:10;;;;;;;21.73;20.30;;;;;;;;;;5073085;28;20441;-67
2022/07/08 07:28:37;;;;;;;21.60;20.30;;;;;;;;;;5073259;28;20401;-67
2022/07/08 07:31:05;;;;;;;23.20;21.60;;;;;;;;;;5072986;28;20412;-68
2022/07/08 07:33:34;;;;;;;23.07;21.43;;;;;;;;;;5072833;28;20507;-68
2022/07/08 07:36:01;;;;;;;22.00;20.60;;;;;;;;;;5072181;28;20568;-67
2022/07/08 07:38:30;;;;;;;22.27;20.57;;;;;;;;;;5072727;28;20415;-68
2022/07/08 07:40:57;;;;;;;22.87;21.27;;;;;;;;;;5072686;28;20954;-68
2022/07/08 07:43:25;;;;;;;21.57;20.20;;;;;;;;;;5072498;28;20414;-67
2022/07/08 07:45:52;;;;;;;22.90;21.20;;;;;;;;;;5072667;28;20471;-68
2022/07/08 07:48:19;;;;;;;21.43;20.03;;;;;;;;;;5072500;28;20418;-68
2022/07/08 07:50:47;;;;;;;21.23;20.03;;;;;;;;;;5072846;28;20414;-68
2022/07/08 07:53:14;;;;;;;22.80;20.90;;;;;;;;;;5072525;28;20444;-68
2022/07/08 07:55:43;;;;;;;22.83;21.27;;;;;;;;;;5084230;28;20502;-69
2022/07/08 07:58:11;;;;;;;23.80;22.30;;;;;;;;;;5092395;28;20433;-69
2022/07/08 08:00:38;;;;;;;24.07;22.70;;;;;;;;;;5092397;28;20409;-69
2022/07/08 08:03:05;;;;;;;24.53;23.07;;;;;;;;;;5092986;28;20408;-69
2022/07/08 08:05:33;;;;;;;23.80;22.03;;;;;;;;;;5092726;28;20423;-69
2022/07/08 08:08:00;;;;;;;23.00;21.60;;;;;;;;;;5093018;28;20488;-69
2022/07/08 08:10:28;;;;;;;25.40;23.50;;;;;;;;;;5093070;28;20470;-69
2022/07/08 08:12:56;;;;;;;24.70;23.03;;;;;;;;;;5092932;28;20454;-69
2022/07/08 08:15:29;;;;;;;25.03;23.10;;;;;;;;;;5094379;28;20803;-69
2022/07/08 08:17:56;;;;;;;22.50;21.10;;;;;;;;;;5096816;28;20432;-71
2022/07/08 08:20:25;;;;;;;24.97;23.17;;;;;;;;;;5096571;28;20524;-69
2022/07/08 08:22:52;;;;;;;23.30;21.60;;;;;;;;;;5097027;28;20522;-69
2022/07/08 08:25:20;;;;;;;22.77;21.07;;;;;;;;;;5096915;28;20558;-69
2022/07/08 08:27:47;;;;;;;22.43;21.13;;;;;;;;;;5097045;28;20424;-70
2022/07/08 08:30:17;;;;;;;22.97;21.13;;;;;;;;;;5096741;28;20470;-69
2022/07/08 08:32:45;;;;;;;23.10;21.50;;;;;;;;;;5096884;28;20434;-69
2022/07/08 08:35:12;;;;;;;22.43;21.13;;;;;;;;;;5096633;28;20871;-69
2022/07/08 08:37:39;;;;;;;22.43;20.90;;;;;;;;;;5096678;28;20478;-69
2022/07/08 08:40:08;;;;;;;22.27;20.50;;;;;;;;;;5096818;28;20831;-69
2022/07/08 08:42:35;;;;;;;22.63;20.90;;;;;;;;;;5096401;28;20414;-69
2022/07/08 08:45:03;;;;;;;22.83;20.93;;;;;;;;;;5096415;28;20435;-69
2022/07/08 08:47:32;;;;;;;24.03;22.10;;;;;;;;;;5096249;28;21162;-69
2022/07/08 08:50:53;;;;;;;22.57;21.00;;;;;;;;;;5096610;28;20429;-69
2022/07/08 08:52:49;;;;;;;22.67;21.27;;;;;;;;;;5096002;28;20424;-70
2022/07/08 08:55:21;;;;;;;23.80;22.10;;;;;;;;;;5096593;28;20473;-70
2022/07/08 08:57:49;;;;;;;23.80;21.97;;;;;;;;;;5085406;28;20458;-69
2022/07/08 09:00:16;;;;;;;23.07;21.23;;;;;;;;;;5092091;28;20550;-69
2022/07/08 09:02:45;;;;;;;23.60;21.80;;;;;;;;;;5096029;28;20424;-69
2022/07/08 09:05:12;;;;;;;24.90;23.13;;;;;;;;;;5095725;28;20804;-70
2022/07/08 09:07:39;;;;;;;23.57;21.90;;;;;;;;;;5096280;28;20448;-71
2022/07/08 09:10:07;;;;;;;22.90;21.30;;;;;;;;;;5096243;28;20427;-71
2022/07/08 09:12:35;;;;;;;22.80;21.30;;;;;;;;;;5096073;28;20428;-69
2022/07/08 09:15:02;;;;;;;23.10;21.33;;;;;;;;;;5096132;28;20438;-70
2022/07/08 09:17:29;;;;;;;23.30;21.80;;;;;;;;;;5095645;28;20544;-70
2022/07/08 09:19:58;;;;;;;22.10;20.50;;;;;;;;;;5095412;28;20486;-70
2022/07/08 09:22:26;;;;;;;21.87;20.57;;;;;;;;;;5095684;28;20457;-70
2022/07/08 09:24:57;;;;;;;23.90;22.27;;;;;;;;;;5095401;28;20949;-70
2022/07/08 09:27:24;;;;;;;22.57;21.37;;;;;;;;;;5094776;28;20478;-70
2022/07/08 09:29:58;;;;;;;23.80;22.27;;;;;;;;;;5095712;28;20443;-72
2022/07/08 09:32:26;;;;;;;24.17;22.00;;;;;;;;;;5095354;28;20562;-70
2022/07/08 09:34:53;;;;;;;22.87;21.37;;;;;;;;;;5095608;28;20463;-71
2022/07/08 09:37:22;;;;;;;22.43;20.80;;;;;;;;;;5095653;28;20480;-74
2022/07/08 09:39:49;;;;;;;21.90;20.50;;;;;;;;;;5095645;28;20439;-77
2022/07/08 09:42:17;;;;;;;21.93;20.53;;;;;;;;;;5095296;28;20440;-74
2022/07/08 09:44:50;;;;;;;23.67;21.97;;;;;;;;;;5095435;28;20535;-71
2022/07/08 09:47:18;;;;;;;23.20;21.70;;;;;;;;;;5095415;28;20471;-70
2022/07/08 09:49:46;;;;;;;23.53;21.70;;;;;;;;;;5095271;28;20435;-70
2022/07/08 09:52:13;;;;;;;22.70;21.13;;;;;;;;;;5095018;28;20454;-70
2022/07/08 09:54:42;;;;;;;22.27;20.87;;;;;;;;;;5080313;28;20440;-68
2022/07/08 09:57:11;;;;;;;23.67;21.97;;;;;;;;;;5074716;28;20477;-68
2022/07/08 09:59:39;;;;;;;23.30;21.70;;;;;;;;;;5074934;28;20449;-68
2022/07/08 10:02:06;;;;;;;23.57;21.87;;;;;;;;;;5074551;28;20441;-68
2022/07/08 10:04:34;;;;;;;25.27;22.73;;;;;;;;;;5075007;28;20800;-68
2022/07/08 10:07:01;;;;;;;23.20;21.53;;;;;;;;;;5074481;28;20449;-68
2022/07/08 10:09:29;;;;;;;23.50;21.90;;;;;;;;;;5074381;28;20894;-68
2022/07/08 10:11:57;;;;;;;24.30;22.70;;;;;;;;;;5074748;28;20433;-68
2022/07/08 10:14:24;;;;;;;23.43;21.67;;;;;;;;;;5074794;28;20441;-69
2022/07/08 10:16:54;;;;;;;24.07;22.30;;;;;;;;;;5074600;28;20495;-68
2022/07/08 10:19:22;;;;;;;24.07;22.40;;;;;;;;;;5074238;28;20448;-68
2022/07/08 10:21:52;;;;;;;24.37;22.87;;;;;;;;;;5074115;28;20454;-68
2022/07/08 10:24:22;;;;;;;24.17;22.70;;;;;;;;;;5074169;28;20488;-68
2022/07/08 10:26:49;;;;;;;24.10;22.60;;;;;;;;;;5074411;28;20807;-68
2022/07/08 10:29:18;;;;;;;24.50;22.90;;;;;;;;;;5074163;28;20930;-69
2022/07/08 10:31:46;;;;;;;25.57;23.77;;;;;;;;;;5074446;28;20486;-69
2022/07/08 10:34:14;;;;;;;23.33;21.90;;;;;;;;;;5074379;28;20443;-69
2022/07/08 10:36:49;;;;;;;25.20;23.20;;;;;;;;;;5073855;28;20510;-68
2022/07/08 10:39:24;;;;;;;22.37;21.13;;;;;;;;;;5073764;28;20494;-68
2022/07/08 10:41:58;;;;;;;23.53;21.83;;;;;;;;;;5074113;28;20435;-69
2022/07/08 10:44:44;;;;;;;22.90;21.27;;;;;;;;;;5073796;28;20443;-69
2022/07/08 10:47:13;;;;;;;23.17;21.47;;;;;;;;;;5074088;28;20441;-69
2022/07/08 10:49:41;;;;;;;23.27;21.67;;;;;;;;;;5073920;28;20438;-68
2022/07/08 10:52:09;;;;;;;23.43;21.53;;;;;;;;;;5073681;28;20450;-68
2022/07/08 10:54:37;;;;;;;23.60;21.80;;;;;;;;;;5073995;28;20409;-69
2022/07/08 10:57:09;;;;;;;23.53;21.67;;;;;;;;;;5073537;28;20969;-69
2022/07/08 10:59:37;;;;;;;24.10;22.23;;;;;;;;;;5073545;28;20483;-68
2022/07/08 11:02:05;;;;;;;23.87;22.10;;;;;;;;;;5072364;28;20415;-69
2022/07/08 11:04:44;;;;;;;23.20;21.90;;;;;;;;;;5073532;28;20408;-69
2022/07/08 11:07:25;;;;;;;24.40;22.80;;;;;;;;;;5073698;28;20500;-68
2022/07/08 11:09:54;;;;;;;24.93;23.03;;;;;;;;;;5073293;28;20992;-69
2022/07/08 11:12:24;;;;;;;25.27;23.53;;;;;;;;;;5073260;28;20460;-68
2022/07/08 11:14:52;;;;;;;24.07;22.40;;;;;;;;;;5073538;28;20422;-69
2022/07/08 11:17:20;;;;;;;24.27;22.27;;;;;;;;;;5073211;28;20450;-69
2022/07/08 11:19:50;;;;;;;24.07;22.57;;;;;;;;;;5073032;28;20488;-69
2022/07/08 11:22:17;;;;;;;25.43;23.37;;;;;;;;;;5073366;28;20436;-69
2022/07/08 11:24:45;;;;;;;24.80;23.27;;;;;;;;;;5073387;28;20477;-68
2022/07/08 11:27:14;;;;;;;24.27;22.40;;;;;;;;;;5073367;28;20423;-69
2022/07/08 11:29:47;;;;;;;23.23;21.87;;;;;;;;;;5073325;28;20433;-69
2022/07/08 11:32:14;;;;;;;23.93;22.43;;;;;;;;;;5072922;28;20404;-69
2022/07/08 11:34:42;;;;;;;24.70;22.60;;;;;;;;;;5072921;28;20484;-72
2022/07/08 11:37:10;;;;;;;23.77;22.37;;;;;;;;;;5073184;28;20485;-68
2022/07/08 11:39:38;;;;;;;24.07;22.37;;;;;;;;;;5073142;28;20474;-69
2022/07/08 11:42:05;;;;;;;22.17;20.77;;;;;;;;;;5072873;28;20486;-69
2022/07/08 11:44:33;;;;;;;23.93;22.37;;;;;;;;;;5073097;28;20469;-69
2022/07/08 11:47:00;;;;;;;23.60;22.10;;;;;;;;;;5073140;28;20449;-69
2022/07/08 11:49:27;;;;;;;23.70;22.20;;;;;;;;;;5072889;28;20829;-68
2022/07/08 11:51:55;;;;;;;23.70;22.20;;;;;;;;;;5072837;28;20433;-69
2022/07/08 11:54:25;;;;;;;23.30;21.77;;;;;;;;;;5072956;28;20419;-68
2022/07/08 11:56:54;;;;;;;22.90;21.50;;;;;;;;;;5072817;28;20452;-69
2022/07/08 11:59:22;;;;;;;24.17;22.50;;;;;;;;;;5072568;28;20837;-69
2022/07/08 12:01:50;;;;;;;24.40;22.63;;;;;;;;;;5072478;28;20928;-69
2022/07/08 12:04:17;;;;;;;24.20;22.30;;;;;;;;;;5072892;28;20416;-69
2022/07/08 12:06:49;;;;;;;23.53;22.13;;;;;;;;;;5072588;28;20416;-68
2022/07/08 12:09:16;;;;;;;24.40;22.87;;;;;;;;;;5072626;28;20441;-68
2022/07/08 12:11:45;;;;;;;23.93;22.50;;;;;;;;;;5072435;28;20473;-69
2022/07/08 12:14:13;;;;;;;23.30;21.70;;;;;;;;;;5072410;28;20412;-69
2022/07/08 12:16:46;;;;;;;23.73;22.13;;;;;;;;;;5072437;28;20885;-69
2022/07/08 12:19:27;;;;;;;23.43;21.83;;;;;;;;;;5072356;28;20442;-69
2022/07/08 12:21:54;;;;;;;24.70;22.90;;;;;;;;;;5072677;28;20437;-68
2022/07/08 12:24:25;;;;;;;24.13;22.43;;;;;;;;;;5072620;28;20463;-68
2022/07/08 12:26:55;;;;;;;24.50;22.60;;;;;;;;;;5072725;28;20437;-69
2022/07/08 12:29:22;;;;;;;24.00;22.20;;;;;;;;;;5072603;28;20412;-69
2022/07/08 12:31:50;;;;;;;23.70;21.90;;;;;;;;;;5072559;28;20431;-69
2022/07/08 12:34:18;;;;;;;22.73;21.13;;;;;;;;;;5072540;28;20447;-69
2022/07/08 12:36:45;;;;;;;23.20;21.60;;;;;;;;;;5072442;28;20903;-69
2022/07/08 12:39:13;;;;;;;24.07;22.33;;;;;;;;;;5072503;28;20453;-69
2022/07/08 12:41:40;;;;;;;23.30;21.47;;;;;;;;;;5072377;28;20416;-69
2022/07/08 12:44:26;;;;;;;23.33;21.63;;;;;;;;;;5072537;28;20438;-69
2022/07/08 12:46:55;;;;;;;22.63;21.20;;;;;;;;;;5072085;28;20831;-70
2022/07/08 12:49:23;;;;;;;24.00;22.10;;;;;;;;;;5072071;28;20922;-69
2022/07/08 12:51:51;;;;;;;22.70;21.30;;;;;;;;;;5072345;28;20491;-69
2022/07/08 12:54:18;;;;;;;23.80;22.13;;;;;;;;;;5072445;28;20521;-76
2022/07/08 12:56:46;;;;;;;22.67;21.27;;;;;;;;;;5072261;28;20408;-69
2022/07/08 12:59:13;;;;;;;22.73;21.03;;;;;;;;;;5072361;28;20426;-69
2022/07/08 13:01:40;;;;;;;23.77;22.00;;;;;;;;;;5074429;28;20417;-69
2022/07/08 13:04:09;;;;;;;24.33;22.60;;;;;;;;;;5075991;28;20452;-69
2022/07/08 13:06:37;;;;;;;23.73;22.13;;;;;;;;;;5076165;28;20437;-70
2022/07/08 13:09:05;;;;;;;24.40;22.57;;;;;;;;;;5076005;28;20437;-69
2022/07/08 13:11:32;;;;;;;23.93;22.33;;;;;;;;;;5075911;28;20512;-69
2022/07/08 13:13:59;;;;;;;23.57;21.70;;;;;;;;;;5075558;28;20477;-68
2022/07/08 13:16:27;;;;;;;23.23;21.73;;;;;;;;;;5075937;28;20416;-69
2022/07/08 13:18:54;;;;;;;23.67;22.03;;;;;;;;;;5075698;28;20477;-69
2022/07/08 13:21:22;;;;;;;23.20;21.60;;;;;;;;;;5075309;28;20471;-72
2022/07/08 13:23:50;;;;;;;22.90;21.33;;;;;;;;;;5075386;28;20991;-69
2022/07/08 13:26:18;;;;;;;22.30;20.90;;;;;;;;;;5075677;28;20404;-69
2022/07/08 13:28:45;;;;;;;23.33;21.53;;;;;;;;;;5075368;28;20485;-69
2022/07/08 13:31:13;;;;;;;23.17;21.67;;;;;;;;;;5075313;28;20870;-69
2022/07/08 13:33:40;;;;;;;22.80;21.30;;;;;;;;;;5075251;28;20477;-69
2022/07/08 13:36:08;;;;;;;23.53;21.80;;;;;;;;;;5075552;28;20436;-69
2022/07/08 13:38:36;;;;;;;23.00;21.20;;;;;;;;;;5075358;28;20500;-69
2022/07/08 13:41:03;;;;;;;22.93;21.40;;;;;;;;;;5075067;28;20442;-69
2022/07/08 13:43:31;;;;;;;23.67;21.97;;;;;;;;;;5075020;28;20437;-68
2022/07/08 13:45:58;;;;;;;23.17;21.67;;;;;;;;;;5075043;28;20908;-69
2022/07/08 13:48:25;;;;;;;22.83;21.37;;;;;;;;;;5075285;28;20434;-68
2022/07/08 13:50:53;;;;;;;22.87;21.53;;;;;;;;;;5075218;28;20423;-69
2022/07/08 13:53:20;;;;;;;24.60;22.77;;;;;;;;;;5074902;28;20404;-69
2022/07/08 13:55:49;;;;;;;23.67;21.80;;;;;;;;;;5074836;28;20434;-69
2022/07/08 13:58:16;;;;;;;22.90;21.40;;;;;;;;;;5074819;28;20459;-69
2022/07/08 14:00:43;;;;;;;22.87;21.30;;;;;;;;;;5074973;28;20451;-69
2022/07/08 14:03:11;;;;;;;23.50;21.90;;;;;;;;;;5074931;28;20409;-69
2022/07/08 14:05:38;;;;;;;22.73;21.43;;;;;;;;;;5075067;28;20434;-69
2022/07/08 14:08:05;;;;;;;24.07;22.57;;;;;;;;;;5074914;28;20424;-68
2022/07/08 14:10:33;;;;;;;22.60;21.30;;;;;;;;;;5074900;28;20868;-69
2022/07/08 14:13:02;;;;;;;23.53;21.83;;;;;;;;;;5073559;28;20437;-69
2022/07/08 14:15:29;;;;;;;23.60;21.90;;;;;;;;;;5074524;28;20898;-68
2022/07/08 14:17:56;;;;;;;22.67;21.27;;;;;;;;;;5074603;28;20472;-69
2022/07/08 14:20:24;;;;;;;22.03;20.73;;;;;;;;;;5074296;28;20473;-68
2022/07/08 14:22:51;;;;;;;24.53;22.10;;;;;;;;;;5074527;28;20459;-69